createdAt,value
2022-10-05T00:01:21.827Z,7.63
2022-10-05T00:06:38.151Z,7.69
2022-10-05T00:11:55.558Z,7.65
2022-10-05T00:17:11.564Z,7.65
2022-10-05T00:22:29.163Z,7.8
2022-10-05T00:27:46.447Z,7.8
2022-10-05T00:33:06.691Z,7.84
2022-10-05T00:38:23.239Z,7.84
2022-10-05T00:43:40.843Z,7.62
2022-10-05T00:48:57.151Z,7.62
2022-10-05T00:54:17.431Z,7.66
2022-10-05T00:58:40.764Z,7.66
2022-10-05T01:04:47.405Z,7.66
2022-10-05T01:10:04.183Z,7.66
2022-10-05T01:20:37.169Z,7.73
2022-10-05T01:25:53.155Z,7.69
2022-10-05T01:31:09.491Z,7.69
2022-10-05T01:36:25.496Z,7.84
2022-10-05T01:41:40.997Z,7.84
2022-10-05T01:46:57.215Z,7.69
2022-10-05T01:52:14.600Z,7.69
2022-10-05T01:56:41.564Z,7.9
2022-10-05T02:01:17.640Z,7.9
2022-10-05T02:06:26.141Z,8.06
2022-10-05T02:11:33.967Z,8.06
2022-10-05T02:16:45.252Z,7.88
2022-10-05T02:21:53.479Z,7.88
2022-10-05T02:27:02.603Z,7.52
2022-10-05T02:32:13.638Z,7.64
2022-10-05T02:37:22.754Z,7.64
2022-10-05T02:42:32.511Z,7.49
2022-10-05T02:47:42.910Z,7.49
2022-10-05T02:52:52.671Z,7.71
2022-10-05T02:58:03.743Z,7.71
2022-10-05T03:03:10.962Z,7.56
2022-10-05T03:08:20.668Z,7.56
2022-10-05T03:13:30.767Z,7.92
2022-10-05T03:18:46.282Z,7.92
2022-10-05T03:24:03.124Z,7.64
2022-10-05T03:29:17.983Z,7.64
2022-10-05T03:34:34.137Z,7.75
2022-10-05T03:39:50.331Z,7.75
2022-10-05T03:45:05.180Z,7.84
2022-10-05T03:50:20.726Z,7.84
2022-10-05T03:55:36.899Z,7.84
2022-10-05T04:00:53.024Z,7.84
2022-10-05T04:06:07.900Z,7.7
2022-10-05T04:10:10.160Z,7.7
2022-10-05T04:15:23.693Z,7.85
2022-10-05T04:20:30.920Z,7.85
2022-10-05T04:25:40.044Z,7.87
2022-10-05T04:30:50.445Z,7.87
2022-10-05T04:35:58.992Z,7.63
2022-10-05T04:41:09.347Z,7.63
2022-10-05T04:46:20.117Z,7.6
2022-10-05T04:51:29.484Z,7.6
2022-10-05T04:56:38.613Z,7.9
2022-10-05T05:01:47.085Z,7.9
2022-10-05T05:06:56.281Z,7.56
2022-10-05T05:12:05.319Z,7.56
2022-10-05T05:17:15.720Z,7.87
2022-10-05T05:22:25.475Z,7.87
2022-10-05T05:27:37.808Z,7.84
2022-10-05T05:32:46.936Z,7.83
2022-10-05T05:37:55.414Z,7.83
2022-10-05T05:43:09.324Z,7.75
2022-10-05T05:48:34.027Z,7.75
2022-10-05T05:53:42.999Z,7.96
2022-10-05T05:58:59.098Z,7.96
2022-10-05T06:04:16.100Z,7.79
2022-10-05T06:09:33.963Z,7.79
2022-10-05T06:14:50.124Z,7.56
2022-10-05T06:20:06.923Z,7.56
2022-10-05T06:25:23.881Z,7.61
2022-10-05T06:30:40.931Z,7.61
2022-10-05T06:35:09.885Z,7.88
2022-10-05T06:39:46.762Z,7.88
2022-10-05T06:44:56.522Z,7.76
2022-10-05T06:50:05.648Z,7.76
2022-10-05T06:55:14.643Z,7.75
2022-10-05T07:00:26.349Z,7.75
2022-10-05T07:05:35.582Z,7.73
2022-10-05T07:10:44.698Z,7.73
2022-10-05T07:15:59.950Z,7.83
2022-10-05T07:21:16.099Z,7.83
2022-10-05T07:26:31.648Z,7.78
2022-10-05T07:31:46.538Z,7.78
2022-10-05T07:37:01.339Z,7.68
2022-10-05T07:42:16.254Z,7.68
2022-10-05T07:47:31.217Z,7.51
2022-10-05T07:52:47.257Z,7.51
2022-10-05T07:58:02.811Z,7.48
2022-10-05T08:03:17.833Z,7.48
2022-10-05T08:08:15.433Z,7.59
2022-10-05T08:13:50.659Z,7.59
2022-10-05T08:19:06.784Z,7.75
2022-10-05T08:23:32.944Z,7.75
2022-10-05T08:28:03.790Z,7.64
2022-10-05T08:34:53.348Z,7.64
2022-10-05T08:39:20.136Z,7.53
2022-10-05T08:43:51.886Z,7.61
2022-10-05T08:49:01.687Z,7.61
2022-10-05T08:54:10.116Z,7.78
2022-10-05T08:59:19.872Z,7.78
2022-10-05T09:04:28.402Z,7.79
2022-10-05T09:11:02.718Z,7.79
2022-10-05T09:16:19.374Z,7.77
2022-10-05T09:21:36.782Z,7.77
2022-10-05T09:26:53.108Z,7.73
2022-10-05T09:32:11.751Z,7.73
2022-10-05T09:36:36.494Z,7.64
2022-10-05T09:41:05.163Z,7.64
2022-10-05T09:46:21.361Z,7.83
2022-10-05T09:51:37.578Z,7.83
2022-10-05T10:02:33.487Z,7.72
2022-10-05T10:07:31.082Z,7.77
2022-10-05T10:12:48.525Z,7.77
2022-10-05T10:18:04.837Z,7.81
2022-10-05T10:22:30.862Z,7.81
2022-10-05T10:27:01.316Z,7.69
2022-10-05T10:32:11.072Z,7.69
2022-10-05T10:37:20.213Z,7.73
2022-10-05T10:42:29.968Z,7.73
2022-10-05T10:47:39.713Z,7.65
2022-10-05T10:52:47.569Z,7.65
2022-10-05T10:57:57.323Z,7.75
2022-10-05T11:03:09.029Z,7.75
2022-10-05T11:08:17.514Z,7.88
2022-10-05T11:13:30.476Z,7.88
2022-10-05T11:18:59.336Z,7.73
2022-10-05T11:24:07.888Z,7.65
2022-10-05T11:29:17.670Z,7.65
2022-10-05T11:34:29.982Z,7.72
2022-10-05T11:39:39.732Z,7.72
2022-10-05T11:44:48.191Z,7.71
2022-10-05T11:50:03.199Z,7.71
2022-10-05T11:55:12.682Z,7.71
2022-10-05T12:00:19.415Z,7.71
2022-10-05T12:05:29.186Z,7.73
2022-10-05T12:10:45.208Z,7.73
2022-10-05T12:16:01.986Z,7.64
2022-10-05T12:21:18.954Z,7.64
2022-10-05T12:26:36.360Z,7.66
2022-10-05T12:31:53.160Z,7.66
2022-10-05T12:37:05.890Z,7.6
2022-10-05T12:52:56.379Z,8
2022-10-05T13:13:59.098Z,7.91
2022-10-05T13:19:14.709Z,7.85
2022-10-05T13:45:31.591Z,7.86
2022-10-05T13:56:03.249Z,7.93
2022-10-05T14:01:18.139Z,7.85
2022-10-05T14:06:34.352Z,7.85
2022-10-05T14:10:59.182Z,7.88
2022-10-05T14:16:14.771Z,7.88
2022-10-05T14:20:39.599Z,7.9
2022-10-05T14:26:13.291Z,7.93
2022-10-05T14:31:09.343Z,7.93
2022-10-05T14:36:25.866Z,7.93
2022-10-05T14:41:41.048Z,7.93
2022-10-05T14:46:07.291Z,7.84
2022-10-05T14:50:40.872Z,7.84
2022-10-05T14:55:54.368Z,7.94
2022-10-05T15:01:03.241Z,7.94
2022-10-05T15:06:15.793Z,7.86
2022-10-05T15:11:23.732Z,7.86
2022-10-05T15:16:33.109Z,7.77
2022-10-05T15:21:42.643Z,7.77
2022-10-05T15:26:53.017Z,7.76
2022-10-05T15:32:01.512Z,7.76
2022-10-05T15:37:09.962Z,7.85
2022-10-05T15:42:20.348Z,7.85
2022-10-05T15:47:28.861Z,7.88
2022-10-05T15:52:38.608Z,7.88
2022-10-05T15:57:50.300Z,7.6
2022-10-05T16:02:58.758Z,7.6
2022-10-05T16:08:11.093Z,7.69
2022-10-05T16:13:24.674Z,7.69
2022-10-05T16:18:34.563Z,7.67
2022-10-05T16:23:43.554Z,7.67
2022-10-05T16:28:53.984Z,7.62
2022-10-05T16:34:03.714Z,7.62
2022-10-05T16:39:14.769Z,7.76
2022-10-05T16:44:23.231Z,7.76
2022-10-05T16:49:37.984Z,7.68
2022-10-05T16:54:52.200Z,7.68
2022-10-05T17:00:09.870Z,7.74
2022-10-05T17:05:23.289Z,7.74
2022-10-05T17:10:38.786Z,7.77
2022-10-05T17:15:54.989Z,7.77
2022-10-05T17:21:09.821Z,7.73
2022-10-05T17:26:24.726Z,7.83
2022-10-05T17:31:39.670Z,7.83
2022-10-05T17:36:55.129Z,7.82
2022-10-05T17:42:10.616Z,7.82
2022-10-05T17:47:27.458Z,7.72
2022-10-05T17:52:44.850Z,7.72
2022-10-05T17:58:00.847Z,7.8
2022-10-05T18:02:27.307Z,7.8
2022-10-05T18:06:58.113Z,7.88
2022-10-05T18:12:07.243Z,7.88
2022-10-05T18:17:17.983Z,7.82
2022-10-05T18:22:32.851Z,7.82
2022-10-05T18:27:47.749Z,7.83
2022-10-05T18:33:03.971Z,7.83
2022-10-05T18:38:18.811Z,7.7
2022-10-05T18:43:34.940Z,7.7
2022-10-05T18:48:49.817Z,7.79
2022-10-05T18:54:06.039Z,7.79
2022-10-05T18:59:22.138Z,7.73
2022-10-05T19:04:36.377Z,7.73
2022-10-05T19:09:52.571Z,7.66
2022-10-05T19:15:08.059Z,7.66
2022-10-05T19:20:24.220Z,7.83
2022-10-05T19:25:39.103Z,7.83
2022-10-05T19:29:24.684Z,7.56
2022-10-05T19:34:33.793Z,7.56
2022-10-05T19:39:42.917Z,7.5
2022-10-05T19:44:52.697Z,7.5
2022-10-05T19:50:01.158Z,7.44
2022-10-05T19:55:15.442Z,7.44
2022-10-05T20:00:23.887Z,7.57
2022-10-05T20:05:32.494Z,7.57
2022-10-05T20:10:41.466Z,7.52
2022-10-05T20:15:51.814Z,7.52
2022-10-05T20:21:01.003Z,7.48
2022-10-05T20:26:10.763Z,7.48
2022-10-05T20:31:21.090Z,7.59
2022-10-05T20:36:48.212Z,7.56
2022-10-05T20:41:57.430Z,7.56
2022-10-05T20:47:13.155Z,7.66
2022-10-05T20:52:30.146Z,7.66
2022-10-05T20:57:47.562Z,7.82
2022-10-05T21:03:04.295Z,7.82
2022-10-05T21:08:21.643Z,7.78
2022-10-05T21:13:38.444Z,7.78
2022-10-05T21:18:55.880Z,7.61
2022-10-05T21:24:12.203Z,7.61
2022-10-05T21:29:28.281Z,7.63
2022-10-05T21:34:45.645Z,7.63
2022-10-05T21:39:12.611Z,7.66
2022-10-05T21:44:30.519Z,7.66
2022-10-05T21:49:00.353Z,7.71
2022-10-05T21:54:08.840Z,7.71
2022-10-05T21:59:17.304Z,7.94
2022-10-05T22:04:26.451Z,7.94
2022-10-05T22:09:34.925Z,7.88
2022-10-05T22:14:43.397Z,7.88
2022-10-05T22:19:53.169Z,7.84
2022-10-05T22:25:02.264Z,7.84
2022-10-05T22:30:11.418Z,7.98
2022-10-05T22:35:20.513Z,7.98
2022-10-05T22:40:29.640Z,7.6
2022-10-05T22:45:38.514Z,7.6
2022-10-05T22:50:46.004Z,7.63
2022-10-05T22:56:01.103Z,7.63
2022-10-05T23:01:14.193Z,7.48
2022-10-05T23:06:30.328Z,7.48
2022-10-05T23:11:45.818Z,7.33
2022-10-05T23:17:00.757Z,7.33
2022-10-05T23:22:16.214Z,7.16
2022-10-05T23:27:31.091Z,7.16
2022-10-05T23:32:46.729Z,7.31
2022-10-05T23:38:01.499Z,7.27
2022-10-05T23:43:19.081Z,7.27
2022-10-05T23:48:36.729Z,7.37
2022-10-05T23:53:53.965Z,7.37
2022-10-05T23:59:10.758Z,7.46
